createdAt,value
2022-12-19T00:01:39.454Z,32.27
2022-12-19T00:04:10.020Z,23.23
2022-12-19T00:06:42.300Z,29.43
2022-12-19T00:09:12.838Z,27.93
2022-12-19T00:11:40.821Z,22.88
2022-12-19T00:14:10.986Z,30.77
2022-12-19T00:16:37.846Z,21.47
2022-12-19T00:19:05.324Z,34.43
2022-12-19T00:21:34.936Z,21.90
2022-12-19T00:24:05.210Z,34.47
2022-12-19T00:26:43.742Z,31.37
2022-12-19T00:29:14.249Z,26.37
2022-12-19T00:31:41.646Z,27.50
2022-12-19T00:34:09.644Z,28.90
2022-12-19T00:36:36.459Z,21.40
2022-12-19T00:39:08.108Z,35.80
2022-12-19T00:41:37.584Z,27.67
2022-12-19T00:44:12.363Z,29.57
2022-12-19T00:46:39.338Z,29.93
2022-12-19T00:49:06.823Z,30.23
2022-12-19T00:51:36.439Z,28.57
2022-12-19T00:54:05.465Z,28.53
2022-12-19T00:56:37.569Z,28.77
2022-12-19T00:59:05.285Z,30.57
2022-12-19T01:01:38.161Z,27.50
2022-12-19T01:06:54.041Z,31.07
2022-12-19T01:09:25.216Z,32.80
2022-12-19T01:12:10.623Z,39.43
2022-12-19T01:14:37.678Z,28.60
2022-12-19T01:17:04.471Z,44.67
2022-12-19T01:19:31.545Z,36.77
2022-12-19T01:21:58.353Z,42.47
2022-12-19T01:24:26.135Z,47.00
2022-12-19T01:26:52.985Z,70.17
2022-12-19T01:29:20.093Z,155.60
2022-12-19T01:31:46.958Z,59.37
2022-12-19T01:34:14.073Z,47.20
2022-12-19T01:36:40.844Z,54.53
2022-12-19T01:39:08.192Z,93.47
2022-12-19T01:41:35.879Z,84.80
2022-12-19T01:44:05.896Z,47.40
2022-12-19T01:46:40.116Z,62.10
2022-12-19T01:49:15.964Z,98.67
2022-12-19T01:51:47.893Z,38.20
2022-12-19T01:54:19.908Z,31.93
2022-12-19T01:56:50.950Z,30.70
2022-12-19T01:59:22.975Z,41.53
2022-12-19T02:01:55.426Z,31.87
2022-12-19T02:04:26.335Z,32.87
2022-12-19T02:06:58.392Z,42.80
2022-12-19T02:09:25.628Z,39.87
2022-12-19T02:11:53.373Z,30.23
2022-12-19T02:14:20.947Z,34.17
2022-12-19T02:16:47.807Z,32.43
2022-12-19T02:19:41.185Z,36.63
2022-12-19T02:22:19.000Z,47.07
2022-12-19T02:25:16.690Z,45.07
2022-12-19T02:28:31.460Z,36.47
2022-12-19T02:31:21.091Z,35.33
2022-12-19T02:34:04.367Z,38.03
2022-12-19T02:36:43.532Z,30.53
2022-12-19T02:39:18.748Z,37.67
2022-12-19T02:41:51.435Z,32.80
2022-12-19T02:44:25.703Z,31.77
2022-12-19T02:46:53.401Z,39.47
2022-12-19T02:49:30.691Z,28.73
2022-12-19T02:51:58.482Z,32.90
2022-12-19T02:54:25.699Z,32.93
2022-12-19T02:57:03.017Z,29.27
2022-12-19T03:00:00.418Z,32.80
2022-12-19T03:03:05.448Z,42.63
2022-12-19T03:05:46.619Z,30.43
2022-12-19T03:08:19.476Z,38.53
2022-12-19T03:10:51.013Z,38.03
2022-12-19T03:13:26.883Z,37.73
2022-12-19T03:15:53.736Z,34.07
2022-12-19T03:18:21.079Z,32.63
2022-12-19T03:20:52.220Z,30.63
2022-12-19T03:23:19.850Z,29.67
2022-12-19T03:25:51.052Z,47.95
2022-12-19T03:28:31.504Z,38.10
2022-12-19T03:31:00.872Z,28.70
2022-12-19T03:33:31.473Z,31.30
2022-12-19T03:36:03.836Z,30.97
2022-12-19T03:38:33.295Z,28.27
2022-12-19T03:41:02.643Z,27.10
2022-12-19T03:43:32.652Z,35.43
2022-12-19T03:46:10.117Z,47.53
2022-12-19T03:48:47.964Z,39.80
2022-12-19T03:51:44.531Z,22.27
2022-12-19T03:54:25.721Z,36.25
2022-12-19T03:57:02.181Z,29.60
2022-12-19T03:59:43.957Z,34.10
2022-12-19T04:02:13.920Z,26.00
2022-12-19T04:04:46.123Z,20.07
2022-12-19T04:07:15.007Z,29.27
2022-12-19T04:09:45.155Z,25.20
2022-12-19T04:12:17.119Z,25.43
2022-12-19T04:14:44.701Z,29.83
2022-12-19T04:17:29.497Z,22.08
2022-12-19T04:20:04.668Z,25.37
2022-12-19T04:22:36.743Z,29.93
2022-12-19T04:25:07.966Z,33.27
2022-12-19T04:27:37.114Z,31.60
2022-12-19T04:30:07.256Z,24.63
2022-12-19T04:32:36.385Z,33.07
2022-12-19T04:35:03.710Z,26.43
2022-12-19T04:37:31.475Z,28.53
2022-12-19T04:39:58.748Z,26.30
2022-12-19T04:42:25.653Z,32.90
2022-12-19T04:44:52.832Z,28.42
2022-12-19T04:47:19.611Z,23.37
2022-12-19T04:49:46.737Z,38.73
2022-12-19T04:52:13.517Z,32.70
2022-12-19T04:54:40.670Z,31.60
2022-12-19T04:57:07.492Z,31.13
2022-12-19T04:59:34.727Z,20.30
2022-12-19T05:02:01.603Z,27.30
2022-12-19T05:04:28.784Z,33.73
2022-12-19T05:06:55.593Z,27.77
2022-12-19T05:09:22.727Z,27.50
2022-12-19T05:11:50.106Z,41.53
2022-12-19T05:14:17.195Z,36.23
2022-12-19T05:16:43.963Z,40.97
2022-12-19T05:19:11.050Z,54.57
2022-12-19T05:21:37.835Z,49.00
2022-12-19T05:24:05.406Z,55.50
2022-12-19T05:26:32.220Z,80.47
2022-12-19T05:28:59.301Z,93.83
2022-12-19T05:31:26.155Z,94.40
2022-12-19T05:33:53.255Z,73.50
2022-12-19T05:36:20.385Z,50.80
2022-12-19T05:38:47.545Z,72.70
2022-12-19T05:41:16.535Z,76.67
2022-12-19T05:43:51.750Z,80.00
2022-12-19T05:46:19.392Z,120.30
2022-12-19T05:48:46.855Z,74.13
2022-12-19T05:51:14.470Z,90.18
2022-12-19T05:53:42.181Z,76.13
2022-12-19T05:56:14.540Z,52.28
2022-12-19T05:58:43.001Z,53.27
2022-12-19T06:03:48.473Z,60.47
2022-12-19T06:06:17.463Z,73.40
2022-12-19T06:08:44.975Z,47.23
2022-12-19T06:11:13.115Z,44.42
2022-12-19T06:13:41.108Z,57.77
2022-12-19T06:16:11.620Z,52.28
2022-12-19T06:18:44.293Z,77.57
2022-12-19T06:21:15.073Z,47.73
2022-12-19T06:23:43.184Z,53.47
2022-12-19T06:26:18.298Z,61.50
2022-12-19T06:28:46.842Z,51.17
2022-12-19T06:31:14.289Z,57.58
2022-12-19T06:33:41.596Z,61.92
2022-12-19T06:36:13.837Z,58.27
2022-12-19T06:38:40.914Z,52.43
2022-12-19T06:41:28.803Z,49.93
2022-12-19T06:44:04.058Z,23.80
2022-12-19T06:46:31.251Z,43.93
2022-12-19T06:48:58.473Z,62.40
2022-12-19T06:51:25.309Z,63.53
2022-12-19T06:53:52.644Z,61.50
2022-12-19T06:56:20.374Z,49.53
2022-12-19T07:01:38.531Z,45.33
2022-12-19T07:04:07.401Z,36.03
2022-12-19T07:06:34.221Z,54.97
2022-12-19T07:09:01.446Z,70.17
2022-12-19T07:11:28.285Z,45.27
2022-12-19T07:13:55.403Z,78.03
2022-12-19T07:16:22.303Z,83.10
2022-12-19T07:18:49.641Z,94.23
2022-12-19T07:21:16.945Z,80.03
2022-12-19T07:23:44.353Z,76.53
2022-12-19T07:26:11.182Z,61.87
2022-12-19T07:28:38.568Z,71.67
2022-12-19T07:31:05.572Z,76.83
2022-12-19T07:33:32.625Z,72.27
2022-12-19T07:35:59.415Z,92.57
2022-12-19T07:38:26.452Z,102.77
2022-12-19T07:40:53.282Z,119.13
2022-12-19T07:43:20.325Z,87.87
2022-12-19T07:45:47.121Z,96.50
2022-12-19T07:48:14.188Z,94.63
2022-12-19T07:50:41.826Z,89.23
2022-12-19T07:53:08.599Z,90.60
2022-12-19T07:55:35.744Z,81.67
2022-12-19T07:58:03.029Z,77.90
2022-12-19T08:00:31.613Z,86.53
2022-12-19T08:02:59.853Z,77.03
2022-12-19T08:05:27.165Z,86.65
2022-12-19T08:07:54.591Z,115.05
2022-12-19T08:10:22.993Z,190.83
2022-12-19T08:12:49.793Z,122.65
2022-12-19T08:15:16.944Z,109.03
2022-12-19T08:17:43.819Z,93.17
2022-12-19T08:20:11.700Z,84.03
2022-12-19T08:22:38.542Z,86.32
2022-12-19T08:25:07.500Z,87.28
2022-12-19T08:27:35.064Z,79.78
2022-12-19T08:30:02.594Z,88.90
2022-12-19T08:32:29.738Z,129.40
2022-12-19T08:34:56.909Z,147.85
2022-12-19T08:37:23.764Z,100.00
2022-12-19T08:39:51.800Z,75.60
2022-12-19T08:42:19.026Z,80.07
2022-12-19T08:44:46.251Z,87.45
2022-12-19T08:47:13.073Z,74.90
2022-12-19T08:49:40.468Z,76.30
2022-12-19T08:52:07.318Z,76.78
2022-12-19T08:54:34.470Z,89.53
2022-12-19T08:57:01.420Z,83.60
2022-12-19T08:59:30.766Z,79.10
2022-12-19T09:02:00.067Z,102.88
2022-12-19T09:05:15.379Z,111.53
2022-12-19T09:07:16.572Z,110.03
2022-12-19T09:09:45.399Z,102.90
2022-12-19T09:12:14.246Z,99.40
2022-12-19T09:14:41.490Z,94.13
2022-12-19T09:17:09.111Z,84.97
2022-12-19T09:19:36.345Z,88.50
2022-12-19T09:22:03.205Z,96.78
2022-12-19T09:24:30.368Z,75.10
2022-12-19T09:26:57.112Z,66.00
2022-12-19T09:29:25.119Z,57.03
2022-12-19T09:31:56.156Z,72.18
2022-12-19T09:34:37.871Z,65.75
2022-12-19T09:37:16.375Z,56.30
2022-12-19T09:39:48.249Z,67.70
2022-12-19T09:42:20.703Z,60.72
2022-12-19T09:45:05.889Z,54.03
2022-12-19T09:47:38.955Z,56.80
2022-12-19T09:50:24.432Z,59.33
2022-12-19T09:53:08.134Z,69.53
2022-12-19T09:55:39.760Z,64.80
2022-12-19T09:58:12.690Z,67.88
2022-12-19T10:00:58.671Z,63.33
2022-12-19T10:04:22.353Z,63.67
2022-12-19T10:07:14.004Z,56.65
2022-12-19T10:11:35.217Z,58.03
2022-12-19T10:13:13.010Z,59.00
2022-12-19T10:16:04.027Z,60.55
2022-12-19T10:18:56.890Z,61.63
2022-12-19T10:22:16.380Z,67.65
2022-12-19T10:24:45.134Z,63.08
2022-12-19T10:27:59.840Z,63.22
2022-12-19T10:30:32.331Z,63.33
2022-12-19T10:33:21.198Z,63.92
2022-12-19T10:36:01.770Z,66.13
2022-12-19T10:38:35.388Z,66.40
2022-12-19T10:41:19.185Z,60.65
2022-12-19T10:44:09.662Z,61.03
2022-12-19T10:46:46.226Z,61.45
2022-12-19T10:49:14.328Z,55.53
2022-12-19T10:51:42.441Z,54.63
2022-12-19T10:54:09.486Z,60.35
2022-12-19T10:56:37.980Z,78.57
2022-12-19T10:59:16.673Z,54.08
2022-12-19T11:01:44.948Z,66.05
2022-12-19T11:04:19.375Z,82.78
2022-12-19T11:07:04.696Z,125.07
2022-12-19T11:09:40.801Z,53.13
2022-12-19T11:16:32.247Z,61.08
2022-12-19T11:19:26.073Z,61.03
2022-12-19T11:29:16.610Z,51.50
2022-12-19T11:29:43.288Z,68.90
2022-12-19T11:29:46.426Z,64.20
2022-12-19T11:30:39.546Z,63.10
2022-12-19T11:32:43.071Z,61.38
2022-12-19T11:35:14.757Z,66.03
2022-12-19T11:37:56.033Z,66.55
2022-12-19T11:40:49.341Z,67.05
2022-12-19T11:43:43.594Z,67.82
2022-12-19T11:46:49.320Z,71.40
2022-12-19T11:49:34.836Z,63.88
2022-12-19T11:52:36.966Z,64.50
2022-12-19T11:55:15.706Z,57.38
2022-12-19T11:57:43.335Z,64.07
2022-12-19T12:00:20.963Z,64.07
2022-12-19T12:03:03.218Z,70.05
2022-12-19T12:05:46.444Z,63.33
2022-12-19T12:09:06.958Z,54.28
2022-12-19T12:17:48.817Z,64.88
2022-12-19T12:21:28.095Z,63.92
2022-12-19T12:31:03.928Z,55.10
2022-12-19T12:31:04.352Z,56.08
2022-12-19T12:31:51.871Z,54.83
2022-12-19T12:31:52.581Z,52.42
2022-12-19T12:31:56.857Z,54.00
2022-12-19T12:35:28.859Z,70.03
2022-12-19T12:39:01.402Z,46.50
2022-12-19T12:42:05.472Z,53.90
2022-12-19T12:44:44.777Z,51.10
2022-12-19T12:47:22.298Z,47.63
2022-12-19T12:49:55.606Z,50.53
2022-12-19T12:52:31.642Z,56.08
2022-12-19T12:54:59.068Z,47.67
2022-12-19T12:57:28.999Z,42.65
2022-12-19T13:00:17.946Z,48.08
2022-12-19T13:02:50.349Z,50.63
2022-12-19T13:05:43.816Z,48.80
2022-12-19T13:08:36.654Z,55.70
2022-12-19T13:11:45.090Z,49.90
2022-12-19T13:14:39.823Z,44.08
2022-12-19T13:17:10.751Z,58.40
2022-12-19T13:19:39.947Z,63.60
2022-12-19T13:22:16.618Z,54.97
2022-12-19T13:24:51.760Z,54.40
2022-12-19T13:27:18.751Z,51.00
2022-12-19T13:30:01.012Z,57.78
2022-12-19T13:32:54.213Z,64.32
2022-12-19T13:36:59.555Z,194.33
2022-12-19T13:39:56.270Z,91.87
2022-12-19T13:41:47.920Z,146.67
2022-12-19T13:44:21.386Z,81.87
2022-12-19T13:46:48.841Z,89.87
2022-12-19T13:49:34.615Z,74.67
2022-12-19T13:52:04.833Z,69.80
2022-12-19T13:54:44.777Z,92.20
2022-12-19T13:57:22.155Z,88.60
2022-12-19T14:00:00.523Z,71.70
2022-12-19T14:02:44.498Z,89.22
2022-12-19T14:06:15.189Z,82.13
2022-12-19T14:08:24.621Z,110.40
2022-12-19T14:11:41.660Z,97.40
2022-12-19T14:14:19.188Z,77.78
2022-12-19T14:16:47.631Z,81.10
2022-12-19T14:19:25.911Z,92.70
2022-12-19T14:22:09.846Z,92.07
2022-12-19T14:24:41.216Z,101.40
2022-12-19T14:28:24.084Z,86.53
2022-12-19T14:30:29.902Z,98.60
2022-12-19T14:33:44.185Z,177.23
2022-12-19T14:36:10.695Z,157.70
2022-12-19T14:39:23.052Z,136.67
2022-12-19T14:41:47.093Z,116.30
2022-12-19T14:52:35.250Z,121.60
2022-12-19T14:53:10.811Z,144.83
2022-12-19T14:54:13.814Z,118.37
2022-12-19T14:54:33.979Z,106.77
2022-12-19T14:56:04.255Z,92.50
2022-12-19T14:58:52.225Z,87.83
2022-12-19T15:01:25.842Z,80.03
2022-12-19T15:04:47.420Z,81.27
2022-12-19T15:07:08.494Z,96.63
2022-12-19T15:10:59.425Z,84.53
2022-12-19T15:14:51.670Z,89.60
2022-12-19T15:15:59.496Z,80.60
2022-12-19T15:18:32.577Z,72.57
2022-12-19T15:21:12.813Z,85.47
2022-12-19T15:23:40.489Z,125.73
2022-12-19T15:26:13.180Z,93.00
2022-12-19T15:28:43.180Z,97.47
2022-12-19T15:31:26.459Z,113.70
2022-12-19T15:34:32.125Z,103.50
2022-12-19T15:36:40.836Z,143.17
2022-12-19T15:39:08.024Z,134.27
2022-12-19T15:41:35.412Z,150.33
2022-12-19T15:44:30.362Z,182.43
2022-12-19T15:46:57.715Z,166.57
2022-12-19T15:49:25.023Z,190.20
2022-12-19T15:51:52.203Z,276.20
2022-12-19T15:54:48.083Z,199.70
2022-12-19T15:57:06.492Z,207.97
2022-12-19T15:59:38.871Z,172.37
2022-12-19T16:02:16.865Z,180.83
2022-12-19T16:07:17.478Z,140.00
2022-12-19T16:09:44.626Z,110.33
2022-12-19T16:12:16.866Z,112.50
2022-12-19T16:14:46.110Z,136.60
2022-12-19T16:17:20.056Z,134.00
2022-12-19T16:19:47.351Z,128.13
2022-12-19T16:22:23.934Z,110.40
2022-12-19T16:24:52.855Z,108.47
2022-12-19T16:27:29.162Z,166.03
2022-12-19T16:29:58.935Z,180.33
2022-12-19T16:32:25.816Z,168.53
2022-12-19T16:34:53.933Z,147.23
2022-12-19T16:37:20.757Z,144.68
2022-12-19T16:39:47.878Z,110.57
2022-12-19T16:42:16.399Z,122.17
2022-12-19T16:44:45.875Z,105.77
2022-12-19T16:47:15.129Z,115.67
2022-12-19T16:49:42.788Z,185.20
2022-12-19T16:52:09.585Z,119.93
2022-12-19T16:54:36.731Z,125.67
2022-12-19T16:57:06.853Z,126.43
2022-12-19T16:59:37.239Z,127.83
2022-12-19T17:02:36.479Z,153.80
2022-12-19T17:05:04.608Z,207.03
2022-12-19T17:07:32.129Z,231.48
2022-12-19T17:09:58.923Z,236.47
2022-12-19T17:12:27.729Z,236.80
2022-12-19T17:17:21.620Z,169.80
2022-12-19T17:19:48.389Z,131.47
2022-12-19T17:22:18.516Z,129.33
2022-12-19T17:24:46.773Z,133.87
2022-12-19T17:29:41.106Z,99.30
2022-12-19T17:32:21.493Z,72.93
2022-12-19T17:34:50.837Z,73.33
2022-12-19T17:37:18.029Z,65.90
2022-12-19T17:39:44.792Z,36.60
2022-12-19T17:42:19.995Z,33.33
2022-12-19T17:44:46.899Z,33.13
2022-12-19T17:47:19.813Z,42.57
2022-12-19T17:49:48.102Z,45.47
2022-12-19T17:52:17.918Z,63.63
2022-12-19T17:54:45.116Z,33.20
2022-12-19T17:57:17.294Z,60.87
2022-12-19T17:59:46.424Z,64.00
2022-12-19T18:02:22.701Z,64.90
2022-12-19T18:04:50.716Z,23.60
2022-12-19T18:07:18.547Z,32.90
2022-12-19T18:09:45.446Z,18.20
2022-12-19T18:12:12.623Z,16.20
2022-12-19T18:14:39.437Z,16.53
2022-12-19T18:17:06.711Z,15.37
2022-12-19T18:19:34.787Z,19.77
2022-12-19T18:22:02.046Z,16.20
2022-12-19T18:24:28.910Z,20.40
2022-12-19T18:26:56.054Z,20.10
2022-12-19T18:29:22.921Z,16.20
2022-12-19T18:31:51.352Z,21.57
2022-12-19T18:34:26.078Z,17.95
2022-12-19T18:36:53.574Z,17.37
2022-12-19T18:39:23.936Z,20.80
2022-12-19T18:41:51.713Z,23.57
2022-12-19T18:44:18.664Z,24.47
2022-12-19T18:46:46.522Z,25.13
2022-12-19T18:49:14.922Z,23.00
2022-12-19T18:51:43.006Z,22.50
2022-12-19T18:54:18.500Z,20.47
2022-12-19T18:56:46.173Z,15.97
2022-12-19T18:59:13.374Z,14.23
2022-12-19T19:01:46.631Z,19.23
2022-12-19T19:04:18.044Z,20.63
2022-12-19T19:06:52.058Z,18.80
2022-12-19T19:09:20.552Z,18.50
2022-12-19T19:11:48.178Z,16.25
2022-12-19T19:14:15.008Z,17.57
2022-12-19T19:16:42.348Z,16.07
2022-12-19T19:19:14.512Z,18.13
2022-12-19T19:21:42.931Z,19.67
2022-12-19T19:24:14.957Z,21.10
2022-12-19T19:26:42.233Z,20.13
2022-12-19T19:29:09.776Z,19.67
2022-12-19T19:31:40.815Z,15.33
2022-12-19T19:34:29.784Z,14.50
2022-12-19T19:37:00.999Z,16.67
2022-12-19T19:39:28.302Z,18.73
2022-12-19T19:41:56.453Z,25.73
2022-12-19T19:44:23.352Z,16.87
2022-12-19T19:46:50.583Z,22.10
2022-12-19T19:49:17.455Z,19.90
2022-12-19T19:51:44.785Z,17.50
2022-12-19T19:54:11.697Z,16.17
2022-12-19T19:56:39.105Z,21.27
2022-12-19T19:59:06.200Z,22.20
2022-12-19T20:01:33.708Z,19.30
2022-12-19T20:04:00.679Z,14.57
2022-12-19T20:06:27.824Z,17.03
2022-12-19T20:08:54.636Z,9.60
2022-12-19T20:11:21.972Z,10.57
2022-12-19T20:13:49.000Z,15.60
2022-12-19T20:16:18.297Z,12.13
2022-12-19T20:18:52.994Z,11.90
2022-12-19T20:21:21.255Z,12.27
2022-12-19T20:23:48.435Z,13.57
2022-12-19T20:26:16.877Z,12.20
2022-12-19T20:28:48.960Z,10.43
2022-12-19T20:31:19.801Z,12.37
2022-12-19T20:33:48.419Z,9.03
2022-12-19T20:38:43.751Z,9.63
2022-12-19T20:41:10.916Z,11.33
2022-12-19T20:43:38.600Z,14.53
2022-12-19T20:46:14.719Z,12.83
2022-12-19T20:48:42.504Z,15.27
2022-12-19T20:51:10.192Z,12.60
2022-12-19T20:53:38.769Z,11.50
2022-12-19T20:56:07.291Z,12.57
2022-12-19T20:58:36.268Z,13.10
2022-12-19T21:01:18.446Z,13.80
2022-12-19T21:03:48.047Z,14.73
2022-12-19T21:06:19.265Z,12.73
2022-12-19T21:08:47.045Z,13.77
2022-12-19T21:11:15.677Z,14.38
2022-12-19T21:13:42.810Z,11.70
2022-12-19T21:16:13.346Z,12.20
2022-12-19T21:18:42.254Z,11.63
2022-12-19T21:21:13.793Z,14.17
2022-12-19T21:23:41.124Z,13.23
2022-12-19T21:26:08.703Z,9.17
2022-12-19T21:28:35.806Z,8.93
2022-12-19T21:31:07.120Z,11.60
2022-12-19T21:33:34.172Z,11.17
2022-12-19T21:36:19.126Z,17.17
2022-12-19T21:38:48.240Z,10.80
2022-12-19T21:41:19.384Z,10.33
2022-12-19T21:43:48.942Z,9.20
2022-12-19T21:46:17.438Z,10.67
2022-12-19T21:48:46.776Z,8.57
2022-12-19T21:51:15.783Z,13.17
2022-12-19T21:53:42.932Z,11.93
2022-12-19T21:56:25.251Z,11.43
2022-12-19T21:59:13.676Z,14.00
2022-12-19T22:01:41.897Z,11.60
2022-12-19T22:04:17.971Z,12.63
2022-12-19T22:06:45.309Z,13.97
2022-12-19T22:09:17.584Z,12.53
2022-12-19T22:11:45.600Z,12.80
2022-12-19T22:14:16.501Z,16.03
2022-12-19T22:16:44.645Z,15.83
2022-12-19T22:19:15.042Z,11.73
2022-12-19T22:21:42.959Z,11.43
2022-12-19T22:24:12.840Z,11.53
2022-12-19T22:26:40.338Z,10.97
2022-12-19T22:29:09.647Z,11.80
2022-12-19T22:31:38.657Z,10.33
2022-12-19T22:34:12.127Z,15.30
2022-12-19T22:36:40.914Z,10.07
2022-12-19T22:39:11.089Z,10.27
2022-12-19T22:41:39.656Z,13.20
2022-12-19T22:44:06.710Z,10.05
2022-12-19T22:46:37.938Z,15.33
2022-12-19T22:49:07.982Z,9.47
2022-12-19T22:51:36.744Z,11.77
2022-12-19T22:54:04.305Z,9.80
2022-12-19T22:56:33.941Z,13.43
2022-12-19T22:59:06.535Z,13.73
2022-12-19T23:01:37.540Z,9.63
2022-12-19T23:04:45.828Z,14.30
2022-12-19T23:07:12.950Z,13.27
2022-12-19T23:09:39.759Z,11.60
2022-12-19T23:12:06.930Z,12.07
2022-12-19T23:14:33.675Z,9.70
2022-12-19T23:17:00.790Z,11.43
2022-12-19T23:19:27.629Z,10.03
2022-12-19T23:21:54.747Z,10.73
2022-12-19T23:24:21.571Z,10.73
2022-12-19T23:26:48.800Z,12.23
2022-12-19T23:29:15.720Z,9.53
2022-12-19T23:31:45.375Z,11.20
2022-12-19T23:34:12.570Z,10.83
2022-12-19T23:39:26.624Z,7.63
2022-12-19T23:41:53.748Z,11.27
2022-12-19T23:44:20.723Z,10.10
2022-12-19T23:46:47.776Z,10.13
2022-12-19T23:49:14.519Z,11.47
2022-12-19T23:51:41.630Z,10.47
2022-12-19T23:54:09.007Z,10.60
2022-12-19T23:56:36.474Z,9.97
2022-12-19T23:59:03.986Z,9.47
